createdAt,value
2023-05-04T00:01:24.615Z,10.55
2023-05-04T00:03:52.145Z,8.65
2023-05-04T00:06:19.477Z,12.73
2023-05-04T00:08:46.578Z,10.55
2023-05-04T00:11:13.724Z,8.30
2023-05-04T00:13:40.845Z,9.63
2023-05-04T00:16:10.616Z,8.77
2023-05-04T00:18:38.656Z,8.82
2023-05-04T00:21:06.261Z,12.45
2023-05-04T00:23:33.435Z,10.82
2023-05-04T00:26:00.706Z,9.68
2023-05-04T00:28:27.915Z,10.15
2023-05-04T00:30:55.317Z,10.38
2023-05-04T00:33:22.559Z,9.70
2023-05-04T00:35:49.727Z,12.38
2023-05-04T00:38:19.030Z,8.60
2023-05-04T00:40:46.273Z,12.30
2023-05-04T00:43:13.426Z,11.25
2023-05-04T00:45:41.162Z,11.68
2023-05-04T00:48:08.627Z,9.43
2023-05-04T00:50:36.231Z,9.32
2023-05-04T00:53:05.953Z,9.35
2023-05-04T00:55:33.228Z,9.75
2023-05-04T00:58:00.409Z,11.98
2023-05-04T01:00:27.541Z,10.30
2023-05-04T01:02:54.702Z,10.07
2023-05-04T01:05:21.942Z,10.02
2023-05-04T01:07:59.512Z,10.90
2023-05-04T01:10:56.310Z,9.90
2023-05-04T01:13:23.568Z,9.10
2023-05-04T01:15:50.788Z,10.15
2023-05-04T01:18:17.931Z,10.02
2023-05-04T01:20:45.103Z,12.32
2023-05-04T01:23:12.334Z,12.07
2023-05-04T01:25:50.528Z,12.77
2023-05-04T01:28:20.293Z,10.80
2023-05-04T01:30:49.970Z,13.82
2023-05-04T01:33:17.610Z,13.88
2023-05-04T01:35:45.354Z,13.15
2023-05-04T01:38:12.623Z,14.45
2023-05-04T01:40:39.755Z,13.02
2023-05-04T01:43:06.850Z,12.02
2023-05-04T01:45:34.024Z,10.93
2023-05-04T01:48:01.207Z,11.30
2023-05-04T01:50:29.545Z,11.75
2023-05-04T01:52:56.663Z,10.40
2023-05-04T01:55:23.828Z,10.13
2023-05-04T01:57:50.921Z,11.85
2023-05-04T02:00:18.102Z,12.68
2023-05-04T02:02:45.342Z,11.20
2023-05-04T02:05:12.557Z,10.35
2023-05-04T02:07:39.694Z,13.05
2023-05-04T02:10:07.380Z,14.23
2023-05-04T02:12:34.550Z,11.93
2023-05-04T02:15:01.920Z,11.90
2023-05-04T02:17:29.071Z,10.52
2023-05-04T02:19:56.180Z,12.75
2023-05-04T02:22:23.329Z,11.57
2023-05-04T02:24:50.584Z,12.52
2023-05-04T02:27:17.686Z,9.50
2023-05-04T02:29:44.824Z,11.70
2023-05-04T02:32:11.972Z,9.32
2023-05-04T02:34:39.076Z,12.05
2023-05-04T02:37:07.589Z,10.60
2023-05-04T02:39:34.957Z,11.57
2023-05-04T02:42:02.946Z,11.25
2023-05-04T02:44:30.065Z,11.35
2023-05-04T02:46:57.308Z,9.77
2023-05-04T02:49:24.379Z,9.48
2023-05-04T02:51:51.483Z,10.80
2023-05-04T02:54:18.608Z,8.45
2023-05-04T02:56:45.741Z,10.15
2023-05-04T02:59:12.960Z,10.48
2023-05-04T03:01:40.146Z,9.48
2023-05-04T03:04:07.829Z,10.30
2023-05-04T03:06:35.084Z,13.02
2023-05-04T03:09:02.181Z,13.95
2023-05-04T03:11:29.276Z,11.43
2023-05-04T03:13:56.372Z,11.50
2023-05-04T03:16:23.544Z,10.85
2023-05-04T03:18:50.755Z,13.27
2023-05-04T03:21:17.902Z,13.35
2023-05-04T03:23:45.040Z,10.68
2023-05-04T03:26:12.204Z,10.88
2023-05-04T03:28:39.312Z,13.07
2023-05-04T03:31:06.444Z,16.50
2023-05-04T03:33:33.860Z,14.90
2023-05-04T03:36:01.126Z,11.65
2023-05-04T03:38:28.305Z,12.00
2023-05-04T03:40:56.404Z,12.65
2023-05-04T03:43:23.488Z,13.75
2023-05-04T03:45:50.718Z,14.60
2023-05-04T03:48:18.114Z,13.73
2023-05-04T03:50:45.199Z,14.32
2023-05-04T03:53:12.365Z,14.38
2023-05-04T03:55:39.494Z,14.13
2023-05-04T03:58:06.688Z,13.80
2023-05-04T04:00:33.833Z,20.10
2023-05-04T04:03:01.069Z,15.32
2023-05-04T04:05:28.260Z,16.35
2023-05-04T04:07:55.347Z,19.92
2023-05-04T04:10:22.446Z,18.30
2023-05-04T04:12:49.841Z,17.17
2023-05-04T04:15:17.210Z,16.92
2023-05-04T04:17:44.518Z,15.57
2023-05-04T04:20:12.841Z,16.27
2023-05-04T04:22:39.902Z,15.45
2023-05-04T04:25:07.293Z,21.23
2023-05-04T04:27:34.402Z,17.33
2023-05-04T04:30:01.481Z,16.75
2023-05-04T04:32:29.122Z,15.88
2023-05-04T04:34:56.381Z,17.73
2023-05-04T04:37:24.148Z,17.88
2023-05-04T04:39:51.270Z,16.40
2023-05-04T04:42:18.452Z,17.45
2023-05-04T04:44:45.699Z,18.05
2023-05-04T04:47:13.098Z,15.77
2023-05-04T04:49:40.234Z,15.77
2023-05-04T04:52:07.355Z,15.27
2023-05-04T04:54:34.421Z,15.32
2023-05-04T04:57:02.513Z,16.15
2023-05-04T04:59:30.071Z,15.13
2023-05-04T05:01:57.800Z,14.90
2023-05-04T05:04:25.174Z,13.63
2023-05-04T05:06:54.252Z,16.42
2023-05-04T05:09:21.428Z,16.63
2023-05-04T05:11:48.571Z,16.75
2023-05-04T05:14:15.701Z,15.52
2023-05-04T05:16:42.937Z,15.55
2023-05-04T05:19:10.071Z,16.45
2023-05-04T05:21:37.197Z,15.10
2023-05-04T05:24:04.439Z,15.48
2023-05-04T05:26:31.969Z,17.50
2023-05-04T05:28:59.084Z,14.93
2023-05-04T05:31:27.224Z,12.85
2023-05-04T05:33:54.521Z,17.45
2023-05-04T05:36:22.290Z,15.57
2023-05-04T05:38:50.422Z,13.95
2023-05-04T05:41:17.690Z,16.15
2023-05-04T05:43:44.931Z,14.40
2023-05-04T05:46:12.788Z,13.30
2023-05-04T05:48:40.033Z,14.68
2023-05-04T05:51:07.126Z,14.68
2023-05-04T05:53:34.239Z,14.65
2023-05-04T05:56:01.444Z,13.48
2023-05-04T05:58:28.546Z,12.00
2023-05-04T06:00:55.691Z,13.15
2023-05-04T06:03:23.048Z,16.15
2023-05-04T06:05:50.225Z,12.82
2023-05-04T06:08:18.322Z,15.68
2023-05-04T06:10:45.432Z,11.52
2023-05-04T06:13:12.794Z,13.00
2023-05-04T06:15:40.065Z,13.68
2023-05-04T06:18:07.472Z,13.30
2023-05-04T06:20:34.565Z,13.30
2023-05-04T06:23:01.675Z,13.57
2023-05-04T06:25:28.819Z,17.73
2023-05-04T06:27:55.937Z,13.68
2023-05-04T06:30:24.443Z,12.38
2023-05-04T06:32:51.633Z,12.52
2023-05-04T06:35:19.201Z,11.95
2023-05-04T06:37:46.429Z,10.60
2023-05-04T06:40:13.954Z,12.25
2023-05-04T06:42:41.253Z,10.48
2023-05-04T06:45:09.136Z,10.98
2023-05-04T06:47:37.389Z,11.23
2023-05-04T06:50:09.393Z,11.15
2023-05-04T06:52:39.098Z,12.95
2023-05-04T06:55:09.589Z,10.73
2023-05-04T06:57:36.872Z,11.43
2023-05-04T07:00:05.153Z,10.45
2023-05-04T07:02:32.469Z,13.80
2023-05-04T07:04:59.703Z,8.82
2023-05-04T07:07:27.155Z,10.77
2023-05-04T07:09:54.246Z,10.65
2023-05-04T07:12:21.358Z,9.07
2023-05-04T07:14:48.474Z,11.02
2023-05-04T07:17:15.593Z,8.75
2023-05-04T07:19:43.076Z,9.60
2023-05-04T07:22:10.189Z,8.82
2023-05-04T07:24:37.334Z,9.15
2023-05-04T07:27:04.493Z,10.32
2023-05-04T07:29:32.123Z,7.90
2023-05-04T07:31:59.270Z,10.63
2023-05-04T07:34:37.938Z,8.65
2023-05-04T07:39:36.781Z,7.03
2023-05-04T07:42:04.111Z,7.75
2023-05-04T07:44:31.730Z,7.93
2023-05-04T07:46:59.318Z,9.43
2023-05-04T07:49:26.830Z,8.98
2023-05-04T07:51:54.296Z,8.75
2023-05-04T07:54:22.920Z,7.45
2023-05-04T07:56:50.676Z,7.88
2023-05-04T07:59:21.670Z,7.55
2023-05-04T08:01:48.897Z,7.60
2023-05-04T08:04:16.107Z,8.60
2023-05-04T08:06:43.281Z,7.45
2023-05-04T08:09:10.391Z,10.30
2023-05-04T08:11:37.771Z,7.95
2023-05-04T08:14:05.092Z,8.00
2023-05-04T08:16:32.416Z,6.60
2023-05-04T08:19:01.326Z,7.57
2023-05-04T08:21:28.574Z,8.02
2023-05-04T08:23:55.900Z,9.48
2023-05-04T08:26:28.178Z,7.80
2023-05-04T08:31:32.969Z,7.85
2023-05-04T08:36:30.354Z,6.90
2023-05-04T08:38:57.957Z,6.63
2023-05-04T08:41:25.070Z,7.25
2023-05-04T08:43:52.564Z,5.88
2023-05-04T08:46:19.818Z,6.40
2023-05-04T08:48:47.405Z,8.27
2023-05-04T08:51:15.442Z,9.50
2023-05-04T08:53:45.973Z,13.82
2023-05-04T08:56:13.905Z,6.53
2023-05-04T08:58:48.805Z,6.15
2023-05-04T09:01:16.586Z,6.18
2023-05-04T09:03:44.773Z,6.53
2023-05-04T09:06:12.396Z,9.43
2023-05-04T09:08:39.606Z,8.75
2023-05-04T09:11:06.859Z,8.30
2023-05-04T09:13:34.115Z,5.07
2023-05-04T09:16:01.305Z,6.97
2023-05-04T09:18:38.201Z,9.70
2023-05-04T09:21:05.307Z,8.30
2023-05-04T09:23:33.316Z,6.60
2023-05-04T09:26:00.509Z,6.55
2023-05-04T09:28:38.619Z,4.80
2023-05-04T09:31:06.498Z,6.57
2023-05-04T09:33:34.048Z,4.20
2023-05-04T09:36:14.255Z,4.13
2023-05-04T09:38:41.647Z,4.25
2023-05-04T09:41:08.880Z,4.35
2023-05-04T09:43:43.672Z,4.45
2023-05-04T09:46:18.122Z,10.68
2023-05-04T09:48:58.775Z,5.10
2023-05-04T09:51:27.503Z,6.75
2023-05-04T09:53:54.677Z,6.38
2023-05-04T09:56:30.866Z,7.15
2023-05-04T09:59:01.465Z,4.63
2023-05-04T10:01:29.871Z,7.97
2023-05-04T10:03:57.159Z,4.65
2023-05-04T10:06:24.890Z,5.60
2023-05-04T10:08:52.515Z,5.57
2023-05-04T10:11:20.797Z,6.57
2023-05-04T10:13:49.433Z,4.63
2023-05-04T10:16:32.167Z,3.88
2023-05-04T10:18:59.271Z,4.07
2023-05-04T10:21:29.659Z,5.03
2023-05-04T10:23:56.746Z,3.72
2023-05-04T10:26:37.430Z,3.50
2023-05-04T10:29:12.974Z,4.20
2023-05-04T10:31:44.004Z,5.68
2023-05-04T10:34:11.420Z,6.40
2023-05-04T10:36:42.314Z,6.32
2023-05-04T10:39:20.495Z,4.53
2023-05-04T10:42:16.859Z,3.78
2023-05-04T10:44:52.169Z,6.13
2023-05-04T10:47:40.877Z,5.07
2023-05-04T10:50:14.555Z,5.40
2023-05-04T10:52:49.004Z,3.75
2023-05-04T10:55:16.821Z,4.10
2023-05-04T10:58:02.136Z,4.25
2023-05-04T11:00:39.752Z,3.90
2023-05-04T11:03:11.864Z,6.25
2023-05-04T11:05:43.222Z,5.50
2023-05-04T11:08:20.706Z,4.95
2023-05-04T11:10:48.542Z,4.13
2023-05-04T11:13:19.577Z,4.95
2023-05-04T11:15:52.000Z,5.10
2023-05-04T11:18:30.853Z,3.65
2023-05-04T11:20:58.339Z,5.28
2023-05-04T11:23:25.555Z,4.22
2023-05-04T11:25:52.666Z,4.63
2023-05-04T11:28:19.858Z,4.63
2023-05-04T11:30:47.702Z,6.10
2023-05-04T11:33:16.192Z,4.57
2023-05-04T11:35:44.291Z,4.53
2023-05-04T11:38:13.257Z,4.05
2023-05-04T11:40:41.263Z,3.63
2023-05-04T11:43:10.664Z,4.75
2023-05-04T11:45:38.996Z,4.50
2023-05-04T11:48:06.357Z,3.42
2023-05-04T11:50:33.701Z,3.95
2023-05-04T11:53:07.210Z,4.50
2023-05-04T11:55:34.904Z,5.03
2023-05-04T11:58:04.938Z,5.15
2023-05-04T12:00:39.688Z,8.02
2023-05-04T12:03:14.669Z,6.30
2023-05-04T12:05:51.753Z,3.42
2023-05-04T12:08:31.747Z,4.38
2023-05-04T12:11:20.433Z,7.32
2023-05-04T12:13:48.534Z,8.80
2023-05-04T12:16:20.301Z,5.68
2023-05-04T12:18:56.746Z,4.27
2023-05-04T12:21:29.106Z,4.95
2023-05-04T12:24:02.205Z,4.20
2023-05-04T12:26:30.613Z,6.05
2023-05-04T12:29:00.407Z,4.18
2023-05-04T12:31:28.697Z,6.43
2023-05-04T12:33:58.296Z,9.65
2023-05-04T12:36:32.030Z,6.70
2023-05-04T12:39:04.927Z,7.35
2023-05-04T12:41:38.070Z,5.78
2023-05-04T12:44:05.971Z,5.20
2023-05-04T12:46:33.160Z,5.72
2023-05-04T12:49:00.359Z,9.48
2023-05-04T12:51:27.554Z,7.68
2023-05-04T12:53:57.786Z,7.60
2023-05-04T12:56:25.168Z,8.60
2023-05-04T12:58:52.323Z,5.60
2023-05-04T13:01:19.539Z,7.60
2023-05-04T13:03:46.800Z,7.28
2023-05-04T13:06:14.165Z,6.57
2023-05-04T13:08:41.254Z,4.95
2023-05-04T13:11:08.749Z,5.90
2023-05-04T13:13:35.942Z,7.88
2023-05-04T13:16:03.291Z,10.18
2023-05-04T13:18:30.492Z,6.22
2023-05-04T13:20:57.701Z,5.68
2023-05-04T13:23:24.879Z,6.10
2023-05-04T13:25:52.367Z,7.82
2023-05-04T13:28:19.594Z,5.85
2023-05-04T13:30:46.772Z,7.25
2023-05-04T13:33:27.999Z,4.82
2023-05-04T13:35:58.139Z,7.40
2023-05-04T13:38:25.748Z,5.80
2023-05-04T13:40:52.860Z,5.07
2023-05-04T13:43:19.985Z,8.75
2023-05-04T13:45:47.154Z,6.53
2023-05-04T13:48:14.305Z,7.28
2023-05-04T13:50:41.450Z,4.95
2023-05-04T13:53:11.164Z,7.03
2023-05-04T13:55:38.484Z,5.15
2023-05-04T13:58:05.838Z,9.18
2023-05-04T14:00:33.511Z,7.63
2023-05-04T14:03:00.865Z,6.40
2023-05-04T14:05:28.101Z,6.30
2023-05-04T14:07:55.214Z,7.32
2023-05-04T14:10:22.382Z,7.50
2023-05-04T14:12:49.649Z,7.85
2023-05-04T14:15:17.052Z,5.90
2023-05-04T14:17:44.220Z,5.45
2023-05-04T14:20:11.641Z,5.18
2023-05-04T14:22:41.169Z,6.18
2023-05-04T14:25:08.826Z,8.65
2023-05-04T14:27:36.227Z,6.65
2023-05-04T14:30:04.452Z,5.78
2023-05-04T14:32:31.630Z,7.75
2023-05-04T14:35:06.508Z,4.65
2023-05-04T14:37:36.463Z,5.65
2023-05-04T14:40:07.360Z,7.93
2023-05-04T14:42:34.940Z,5.38
2023-05-04T14:45:02.082Z,5.32
2023-05-04T14:47:29.565Z,6.07
2023-05-04T14:49:57.474Z,5.15
2023-05-04T14:52:24.623Z,5.00
2023-05-04T14:54:52.006Z,4.90
2023-05-04T14:57:19.239Z,4.05
2023-05-04T14:59:46.421Z,5.13
2023-05-04T15:02:13.583Z,4.05
2023-05-04T15:04:40.753Z,5.82
2023-05-04T15:07:09.402Z,6.10
2023-05-04T15:09:38.124Z,7.55
2023-05-04T15:12:05.400Z,5.80
2023-05-04T15:14:32.782Z,5.35
2023-05-04T15:16:59.912Z,3.70
2023-05-04T15:19:27.097Z,4.07
2023-05-04T15:21:54.228Z,4.55
2023-05-04T15:24:21.339Z,6.20
2023-05-04T15:26:48.617Z,6.45
2023-05-04T15:29:15.795Z,7.07
2023-05-04T15:31:42.967Z,3.65
2023-05-04T15:34:10.138Z,7.38
2023-05-04T15:36:37.274Z,5.55
2023-05-04T15:39:05.755Z,4.80
2023-05-04T15:41:32.900Z,10.68
2023-05-04T15:44:00.000Z,4.03
2023-05-04T15:46:27.164Z,6.65
2023-05-04T15:48:55.109Z,6.82
2023-05-04T15:51:22.259Z,6.13
2023-05-04T15:53:49.395Z,4.95
2023-05-04T15:56:16.645Z,6.28
2023-05-04T15:58:46.933Z,8.18
2023-05-04T16:01:14.633Z,6.68
2023-05-04T16:03:42.255Z,4.80
2023-05-04T16:06:09.607Z,4.40
2023-05-04T16:08:36.913Z,3.47
2023-05-04T16:11:04.476Z,4.53
2023-05-04T16:13:31.777Z,5.35
2023-05-04T16:15:58.958Z,4.20
2023-05-04T16:18:26.019Z,5.63
2023-05-04T16:20:54.607Z,4.25
2023-05-04T16:23:21.778Z,6.30
2023-05-04T16:25:48.906Z,3.53
2023-05-04T16:28:16.191Z,5.22
2023-05-04T16:30:45.619Z,3.67
2023-05-04T16:33:13.101Z,6.95
2023-05-04T16:35:40.283Z,4.30
2023-05-04T16:38:07.467Z,3.42
2023-05-04T16:40:34.665Z,3.78
2023-05-04T16:43:01.817Z,5.28
2023-05-04T16:45:31.715Z,6.43
2023-05-04T16:47:59.084Z,6.85
2023-05-04T16:50:26.366Z,7.78
2023-05-04T16:52:53.616Z,9.70
2023-05-04T16:55:21.061Z,6.15
2023-05-04T16:57:48.650Z,5.75
2023-05-04T17:00:16.177Z,14.27
2023-05-04T17:02:43.442Z,29.90
2023-05-04T17:05:10.835Z,5.57
2023-05-04T17:07:39.727Z,4.95
2023-05-04T17:10:08.145Z,6.88
2023-05-04T17:12:36.082Z,5.18
2023-05-04T17:15:03.594Z,4.95
2023-05-04T17:17:30.979Z,4.10
2023-05-04T17:19:58.286Z,10.57
2023-05-04T17:22:25.517Z,7.10
2023-05-04T17:24:52.809Z,13.07
2023-05-04T17:27:19.988Z,11.43
2023-05-04T17:29:47.088Z,11.85
2023-05-04T17:32:14.341Z,4.88
2023-05-04T17:34:41.655Z,5.40
2023-05-04T17:37:08.820Z,7.78
2023-05-04T17:39:35.944Z,6.45
2023-05-04T17:42:03.126Z,14.20
2023-05-04T17:44:30.740Z,10.30
2023-05-04T17:46:57.829Z,19.42
2023-05-04T17:49:24.949Z,7.78
2023-05-04T17:51:53.179Z,8.85
2023-05-04T17:54:20.289Z,8.20
2023-05-04T17:56:47.383Z,7.82
2023-05-04T17:59:16.038Z,3.78
2023-05-04T18:01:43.190Z,7.32
2023-05-04T18:04:10.332Z,6.55
2023-05-04T18:06:37.521Z,3.65
2023-05-04T18:09:04.872Z,6.63
2023-05-04T18:11:32.007Z,5.68
2023-05-04T18:13:59.149Z,5.57
2023-05-04T18:16:26.572Z,4.88
2023-05-04T18:18:53.816Z,5.45
2023-05-04T18:21:21.142Z,5.32
2023-05-04T18:23:48.223Z,5.60
2023-05-04T18:26:19.553Z,4.63
2023-05-04T18:28:46.652Z,5.28
2023-05-04T18:31:13.862Z,5.55
2023-05-04T18:33:42.001Z,7.10
2023-05-04T18:36:09.219Z,5.53
2023-05-04T18:38:37.170Z,8.73
2023-05-04T18:41:04.798Z,7.20
2023-05-04T18:43:32.023Z,6.45
2023-05-04T18:45:59.161Z,12.55
2023-05-04T18:48:26.232Z,10.23
2023-05-04T18:50:57.084Z,12.85
2023-05-04T18:53:24.610Z,13.10
2023-05-04T18:56:07.867Z,9.15
2023-05-04T18:58:36.967Z,9.23
2023-05-04T19:01:04.422Z,10.85
2023-05-04T19:03:32.119Z,10.38
2023-05-04T19:05:59.306Z,9.73
2023-05-04T19:08:26.486Z,6.45
2023-05-04T19:10:57.466Z,8.25
2023-05-04T19:13:24.832Z,6.18
2023-05-04T19:15:52.012Z,6.75
2023-05-04T19:18:19.263Z,6.78
2023-05-04T19:20:46.857Z,5.75
2023-05-04T19:23:14.025Z,6.30
2023-05-04T19:25:41.225Z,5.50
2023-05-04T19:28:09.066Z,5.85
2023-05-04T19:30:37.183Z,8.75
2023-05-04T19:33:04.799Z,7.65
2023-05-04T19:35:32.116Z,11.02
2023-05-04T19:38:01.299Z,10.77
2023-05-04T19:40:28.793Z,7.32
2023-05-04T19:42:56.007Z,11.60
2023-05-04T19:45:23.209Z,11.38
2023-05-04T19:47:50.880Z,9.93
2023-05-04T19:50:18.140Z,9.63
2023-05-04T19:52:45.513Z,11.98
2023-05-04T19:55:12.766Z,9.73
2023-05-04T19:57:39.951Z,7.70
2023-05-04T20:00:09.623Z,7.15
2023-05-04T20:02:38.210Z,8.65
2023-05-04T20:05:08.769Z,7.35
2023-05-04T20:07:35.854Z,8.77
2023-05-04T20:10:03.042Z,11.38
2023-05-04T20:12:30.465Z,8.77
2023-05-04T20:14:57.814Z,7.93
2023-05-04T20:17:25.013Z,8.68
2023-05-04T20:19:53.891Z,11.13
2023-05-04T20:22:21.055Z,8.40
2023-05-04T20:24:48.196Z,7.97
2023-05-04T20:27:15.290Z,14.43
2023-05-04T20:29:42.647Z,8.40
2023-05-04T20:32:11.002Z,8.70
2023-05-04T20:34:39.597Z,8.20
2023-05-04T20:37:07.276Z,11.40
2023-05-04T20:39:34.374Z,8.65
2023-05-04T20:42:01.572Z,9.02
2023-05-04T20:44:28.893Z,10.63
2023-05-04T20:46:56.257Z,7.13
2023-05-04T20:49:23.382Z,7.47
2023-05-04T20:51:50.452Z,10.38
2023-05-04T20:54:17.646Z,7.38
2023-05-04T20:56:44.800Z,7.30
2023-05-04T20:59:12.008Z,8.10
2023-05-04T21:01:39.174Z,10.40
2023-05-04T21:04:06.332Z,8.52
2023-05-04T21:06:33.452Z,6.32
2023-05-04T21:09:02.015Z,9.65
2023-05-04T21:11:29.077Z,8.35
2023-05-04T21:13:56.219Z,8.10
2023-05-04T21:16:23.474Z,7.88
2023-05-04T21:18:50.679Z,8.05
2023-05-04T21:21:17.825Z,7.65
2023-05-04T21:23:44.963Z,12.43
2023-05-04T21:26:12.478Z,8.02
2023-05-04T21:28:39.544Z,10.70
2023-05-04T21:31:09.851Z,9.25
2023-05-04T21:33:36.957Z,10.45
2023-05-04T21:36:13.685Z,16.48
2023-05-04T21:38:41.044Z,11.13
2023-05-04T21:41:14.933Z,8.45
2023-05-04T21:43:42.229Z,8.45
2023-05-04T21:46:09.556Z,7.15
2023-05-04T21:48:36.765Z,8.70
2023-05-04T21:51:03.862Z,8.40
2023-05-04T21:53:33.834Z,7.00
2023-05-04T21:56:01.576Z,12.32
2023-05-04T21:58:28.918Z,7.65
2023-05-04T22:00:56.152Z,10.70
2023-05-04T22:03:23.707Z,7.57
2023-05-04T22:05:54.543Z,10.70
2023-05-04T22:08:22.280Z,9.38
2023-05-04T22:10:50.214Z,8.82
2023-05-04T22:13:17.725Z,8.85
2023-05-04T22:15:49.968Z,8.38
2023-05-04T22:20:44.664Z,6.85
2023-05-04T22:23:11.905Z,8.93
2023-05-04T22:25:39.624Z,13.23
2023-05-04T22:28:06.811Z,7.97
2023-05-04T22:30:33.986Z,8.00
2023-05-04T22:33:01.279Z,10.10
2023-05-04T22:35:28.540Z,10.25
2023-05-04T22:37:56.018Z,9.48
2023-05-04T22:40:23.175Z,9.95
2023-05-04T22:42:50.270Z,7.50
2023-05-04T22:45:20.377Z,11.25
2023-05-04T22:47:47.544Z,9.00
2023-05-04T22:50:14.853Z,10.55
2023-05-04T22:52:42.221Z,9.77
2023-05-04T22:55:09.632Z,10.85
2023-05-04T22:57:37.239Z,9.45
2023-05-04T23:00:08.200Z,9.65
2023-05-04T23:02:35.860Z,12.68
2023-05-04T23:05:03.885Z,14.27
2023-05-04T23:07:31.080Z,9.75
2023-05-04T23:09:58.290Z,10.63
2023-05-04T23:12:25.614Z,8.48
2023-05-04T23:14:52.852Z,9.05
2023-05-04T23:17:20.106Z,10.25
2023-05-04T23:19:47.356Z,9.52
2023-05-04T23:22:14.769Z,10.90
2023-05-04T23:24:42.272Z,8.15
2023-05-04T23:27:09.831Z,10.75
2023-05-04T23:29:36.994Z,10.88
2023-05-04T23:32:04.329Z,10.65
2023-05-04T23:34:31.984Z,9.10
2023-05-04T23:36:59.156Z,8.38
2023-05-04T23:39:26.225Z,10.40
2023-05-04T23:41:54.133Z,13.25
2023-05-04T23:44:21.281Z,10.93
2023-05-04T23:46:48.468Z,9.43
2023-05-04T23:49:15.662Z,9.98
2023-05-04T23:51:42.782Z,9.07
2023-05-04T23:54:09.991Z,11.55
2023-05-04T23:56:37.092Z,11.25
2023-05-04T23:59:04.513Z,8.75
